createdAt,value
2018-09-06T00:04:54.736Z,8.53
2018-09-06T00:10:17.159Z,8.93
2018-09-06T00:15:39.030Z,8.57
2018-09-06T00:21:01.047Z,8.17
2018-09-06T00:26:24.275Z,6.80
2018-09-06T00:31:46.252Z,7.40
2018-09-06T00:37:08.534Z,6.63
2018-09-06T00:42:30.608Z,6.67
2018-09-06T00:47:52.579Z,6.50
2018-09-06T00:53:14.270Z,5.80
2018-09-06T00:58:36.434Z,5.50
2018-09-06T01:03:58.250Z,5.27
2018-09-06T01:09:20.434Z,4.93
2018-09-06T01:14:42.799Z,4.57
2018-09-06T01:20:04.748Z,5.07
2018-09-06T01:25:31.817Z,4.90
2018-09-06T01:30:53.956Z,4.70
2018-09-06T01:36:20.473Z,4.13
2018-09-06T01:41:42.746Z,4.67
2018-09-06T01:47:05.496Z,5.17
2018-09-06T01:52:27.655Z,3.53
2018-09-06T01:57:49.447Z,4.70
2018-09-06T02:03:11.682Z,4.33
2018-09-06T02:08:33.938Z,4.07
2018-09-06T02:13:55.850Z,4.00
2018-09-06T02:19:17.899Z,4.20
2018-09-06T02:24:39.686Z,3.60
2018-09-06T02:30:01.625Z,4.10
2018-09-06T02:35:23.826Z,4.10
2018-09-06T02:40:45.606Z,4.10
2018-09-06T02:46:07.802Z,4.33
2018-09-06T02:51:29.954Z,4.00
2018-09-06T02:56:51.992Z,4.10
2018-09-06T03:02:13.404Z,4.13
2018-09-06T03:07:35.702Z,4.00
2018-09-06T03:12:57.747Z,4.17
2018-09-06T03:18:19.852Z,4.50
2018-09-06T03:23:42.188Z,3.93
2018-09-06T03:29:04.024Z,4.10
2018-09-06T03:34:26.136Z,4.40
2018-09-06T03:39:47.818Z,5.00
2018-09-06T03:45:09.849Z,5.10
2018-09-06T03:50:31.803Z,5.17
2018-09-06T03:55:53.762Z,4.43
2018-09-06T04:01:15.510Z,5.20
2018-09-06T04:06:37.403Z,5.03
2018-09-06T04:11:59.646Z,5.83
2018-09-06T04:17:21.434Z,5.40
2018-09-06T04:22:53.194Z,5.23
2018-09-06T04:28:15.973Z,5.93
2018-09-06T04:33:38.173Z,6.13
2018-09-06T04:38:59.914Z,5.97
2018-09-06T04:44:21.858Z,6.00
2018-09-06T04:49:43.548Z,5.90
2018-09-06T04:55:06.108Z,6.10
2018-09-06T05:00:28.494Z,5.43
2018-09-06T05:05:50.507Z,5.57
2018-09-06T05:11:12.465Z,5.80
2018-09-06T05:16:34.675Z,5.53
2018-09-06T05:21:56.545Z,5.70
2018-09-06T05:27:18.638Z,5.83
2018-09-06T05:32:40.889Z,5.60
2018-09-06T05:38:02.898Z,5.20
2018-09-06T05:43:24.892Z,5.20
2018-09-06T05:48:46.634Z,5.23
2018-09-06T05:54:08.845Z,4.80
2018-09-06T05:59:30.993Z,4.90
2018-09-06T06:04:52.978Z,5.57
2018-09-06T06:10:15.364Z,5.47
2018-09-06T06:15:37.598Z,5.00
2018-09-06T06:20:59.246Z,5.43
2018-09-06T06:26:21.374Z,6.10
2018-09-06T06:31:43.650Z,5.67
2018-09-06T06:37:05.562Z,5.60
2018-09-06T06:42:27.633Z,5.47
2018-09-06T06:47:49.406Z,5.97
2018-09-06T06:53:11.488Z,5.80
2018-09-06T06:58:33.364Z,5.37
2018-09-06T07:03:55.898Z,6.20
2018-09-06T07:09:17.846Z,5.30
2018-09-06T07:14:39.698Z,5.33
2018-09-06T07:20:01.639Z,5.50
2018-09-06T07:25:24.063Z,5.97
2018-09-06T07:30:45.983Z,4.63
2018-09-06T07:36:08.114Z,5.53
2018-09-06T07:41:30.796Z,4.93
2018-09-06T07:46:53.008Z,5.50
2018-09-06T07:52:15.155Z,5.43
2018-09-06T07:57:37.154Z,5.50
2018-09-06T08:02:59.176Z,4.83
2018-09-06T08:08:21.206Z,5.03
2018-09-06T08:13:43.437Z,5.43
2018-09-06T08:19:05.728Z,6.03
2018-09-06T08:24:28.989Z,5.93
2018-09-06T08:29:51.213Z,5.83
2018-09-06T08:35:13.150Z,5.57
2018-09-06T08:40:35.254Z,6.00
2018-09-06T08:45:57.695Z,5.33
2018-09-06T08:51:19.705Z,5.27
2018-09-06T08:56:41.651Z,5.53
2018-09-06T09:02:03.669Z,5.20
2018-09-06T09:07:25.585Z,5.47
2018-09-06T09:12:47.913Z,4.80
2018-09-06T09:18:09.757Z,5.50
2018-09-06T09:23:32.017Z,5.23
2018-09-06T09:28:54.268Z,5.30
2018-09-06T09:34:16.697Z,5.27
2018-09-06T09:39:39.309Z,4.70
2018-09-06T09:45:01.308Z,4.27
2018-09-06T09:55:44.501Z,4.37
2018-09-06T10:01:06.489Z,4.23
2018-09-06T10:06:33.022Z,3.80
2018-09-06T10:11:54.733Z,5.07
2018-09-06T10:17:16.812Z,4.37
2018-09-06T10:22:39.601Z,3.73
2018-09-06T10:28:02.911Z,3.77
2018-09-06T10:33:24.912Z,3.50
2018-09-06T10:38:47.135Z,3.43
2018-09-06T10:44:08.910Z,3.90
2018-09-06T10:49:30.931Z,3.40
2018-09-06T10:54:52.973Z,3.33
2018-09-06T11:00:15.169Z,3.07
2018-09-06T11:05:37.628Z,3.10
2018-09-06T11:10:59.346Z,3.57
2018-09-06T11:16:22.086Z,3.53
2018-09-06T11:21:44.066Z,3.00
2018-09-06T11:27:06.430Z,3.10
2018-09-06T11:32:28.136Z,2.70
2018-09-06T11:37:50.218Z,2.40
2018-09-06T11:43:12.009Z,2.57
2018-09-06T11:48:34.124Z,2.80
2018-09-06T11:53:56.106Z,2.73
2018-09-06T11:59:19.346Z,2.20
2018-09-06T12:04:41.152Z,2.40
2018-09-06T12:10:03.150Z,1.87
2018-09-06T12:15:25.235Z,2.10
2018-09-06T12:20:47.321Z,1.70
2018-09-06T12:26:09.528Z,2.17
2018-09-06T12:31:31.918Z,2.30
2018-09-06T12:36:54.142Z,2.30
2018-09-06T12:42:16.073Z,2.20
2018-09-06T12:47:38.427Z,2.30
2018-09-06T12:53:01.550Z,1.97
2018-09-06T12:58:23.678Z,1.90
2018-09-06T13:03:46.064Z,1.43
2018-09-06T13:09:09.399Z,1.70
2018-09-06T13:14:31.508Z,1.40
2018-09-06T13:19:53.580Z,1.30
2018-09-06T13:25:15.980Z,1.00
2018-09-06T13:30:38.046Z,1.00
2018-09-06T13:36:00.547Z,0.97
2018-09-06T13:41:22.184Z,1.10
2018-09-06T13:46:44.253Z,1.00
2018-09-06T13:52:06.031Z,1.07
2018-09-06T13:57:28.385Z,1.07
2018-09-06T14:02:50.873Z,1.10
2018-09-06T14:08:13.326Z,1.07
2018-09-06T14:13:35.234Z,1.17
2018-09-06T14:18:57.574Z,0.90
2018-09-06T14:24:19.613Z,1.23
2018-09-06T14:29:41.398Z,0.87
2018-09-06T14:35:03.495Z,0.87
2018-09-06T14:40:25.420Z,1.00
2018-09-06T14:45:47.485Z,0.87
2018-09-06T14:51:09.069Z,1.00
2018-09-06T14:56:31.234Z,1.23
2018-09-06T15:01:54.357Z,0.87
2018-09-06T15:07:16.449Z,1.00
2018-09-06T15:12:38.298Z,1.20
2018-09-06T15:18:01.793Z,0.90
2018-09-06T15:23:23.774Z,1.20
2018-09-06T15:28:45.856Z,1.30
2018-09-06T15:34:08.247Z,1.20
2018-09-06T15:39:30.098Z,1.17
2018-09-06T15:44:52.342Z,1.03
2018-09-06T15:50:14.211Z,0.80
2018-09-06T15:55:36.335Z,0.83
2018-09-06T16:00:58.486Z,1.43
2018-09-06T16:06:20.503Z,0.87
2018-09-06T16:11:43.229Z,0.90
2018-09-06T16:17:05.238Z,1.37
2018-09-06T16:22:27.547Z,1.00
2018-09-06T16:27:49.288Z,0.67
2018-09-06T16:33:11.388Z,1.03
2018-09-06T16:38:33.186Z,1.00
2018-09-06T16:43:55.312Z,1.00
2018-09-06T16:49:17.061Z,0.83
2018-09-06T16:54:39.074Z,1.00
2018-09-06T17:00:00.883Z,0.87
2018-09-06T17:05:22.940Z,0.73
2018-09-06T17:10:45.366Z,0.80
2018-09-06T17:16:07.587Z,0.73
2018-09-06T17:21:29.537Z,1.13
2018-09-06T17:26:51.951Z,1.10
2018-09-06T17:32:14.125Z,1.00
2018-09-06T17:37:36.043Z,0.93
2018-09-06T17:42:58.190Z,1.17
2018-09-06T17:48:19.834Z,1.07
2018-09-06T17:53:42.025Z,0.93
2018-09-06T17:59:05.984Z,1.27
2018-09-06T18:04:27.863Z,1.20
2018-09-06T18:09:50.219Z,1.17
2018-09-06T18:15:11.934Z,1.10
2018-09-06T18:20:34.017Z,1.43
2018-09-06T18:25:56.655Z,2.00
2018-09-06T18:31:19.193Z,1.60
2018-09-06T18:36:41.130Z,1.83
2018-09-06T18:42:03.258Z,2.00
2018-09-06T18:47:25.139Z,1.90
2018-09-06T18:52:52.356Z,1.90
2018-09-06T18:58:19.635Z,1.77
2018-09-06T19:03:49.547Z,2.10
2018-09-06T19:09:17.636Z,1.90
2018-09-06T19:14:46.090Z,1.97
2018-09-06T19:20:15.618Z,2.40
2018-09-06T19:25:45.727Z,2.20
2018-09-06T19:31:12.532Z,2.13
2018-09-06T19:36:43.130Z,2.43
2018-09-06T19:42:13.269Z,2.30
2018-09-06T19:47:39.715Z,2.37
2018-09-06T19:53:09.808Z,2.27
2018-09-06T19:58:38.321Z,2.60
2018-09-06T20:04:00.379Z,2.30
2018-09-06T20:09:22.757Z,2.10
2018-09-06T20:14:45.012Z,2.30
2018-09-06T20:20:07.233Z,2.37
2018-09-06T20:25:30.629Z,2.30
2018-09-06T20:30:53.019Z,2.63
2018-09-06T20:36:14.865Z,2.40
2018-09-06T20:41:36.931Z,2.13
2018-09-06T20:46:58.682Z,2.80
2018-09-06T20:52:20.890Z,2.33
2018-09-06T20:57:43.163Z,2.80
2018-09-06T21:03:05.109Z,2.60
2018-09-06T21:08:27.591Z,2.70
2018-09-06T21:13:50.088Z,2.70
2018-09-06T21:43:04.941Z,2.70
2018-09-06T21:48:26.813Z,2.43
2018-09-06T21:53:48.691Z,2.33
2018-09-06T21:59:10.782Z,2.87
2018-09-06T22:04:32.563Z,2.60
2018-09-06T22:09:54.661Z,2.10
2018-09-06T22:15:16.702Z,2.03
2018-09-06T22:20:38.813Z,1.93
2018-09-06T22:26:00.804Z,2.33
2018-09-06T22:31:22.998Z,2.17
2018-09-06T22:36:45.216Z,2.10
2018-09-06T22:42:07.237Z,2.50
2018-09-06T22:47:30.341Z,2.00
2018-09-06T22:52:54.113Z,1.80
2018-09-06T22:58:17.013Z,2.07
2018-09-06T23:03:41.104Z,2.23
2018-09-06T23:09:03.589Z,1.87
2018-09-06T23:14:25.422Z,2.03
2018-09-06T23:19:48.075Z,2.00
2018-09-06T23:25:14.601Z,2.10
2018-09-06T23:30:41.301Z,1.87
2018-09-06T23:36:03.491Z,2.20
2018-09-06T23:41:25.278Z,2.00
2018-09-06T23:46:47.469Z,1.83
2018-09-06T23:52:09.630Z,1.90
2018-09-06T23:57:31.749Z,1.80
